Time;durP1;ratioP1;P1;durP2;ratioP2;P2;SDS_P1;SDS_P2;PMS_P1;PMS_P2;Temp;Humidity;BMP_temperature;BMP_pressure;BME280_temperature;BME280_humidity;BME280_pressure;Samples;Min_cycle;Max_cycle;Signal;HPM_P1;HPM_P2
2023/10/11 00:00:39;;;;;;;11.50;7.45;;;12.00;99.90;;;;;;6272058;22;20193;-83
2023/10/11 00:03:17;;;;;;;15.48;7.90;;;11.90;99.90;;;;;;6246360;23;20544;-83
2023/10/11 00:05:45;;;;;;;14.48;8.15;;;11.90;99.90;;;;;;6271960;22;20177;-83
2023/10/11 00:08:18;;;;;;;14.82;7.53;;;11.90;99.90;;;;;;6271966;22;20264;-83
2023/10/11 00:10:55;;;;;;;15.38;8.50;;;11.80;99.90;;;;;;6271869;22;20619;-83
2023/10/11 00:13:32;;;;;;;12.60;7.50;;;11.80;99.90;;;;;;6272837;22;20568;-83
2023/10/11 00:15:59;;;;;;;14.27;8.18;;;11.80;99.90;;;;;;6271709;22;20165;-83
2023/10/11 00:18:27;;;;;;;12.85;7.78;;;11.70;99.90;;;;;;6272268;22;20185;-83
2023/10/11 00:20:57;;;;;;;16.38;8.75;;;11.80;99.90;;;;;;6272402;22;20235;-83
2023/10/11 00:23:24;;;;;;;12.63;7.70;;;11.80;99.90;;;;;;6272911;22;20460;-83
2023/10/11 00:25:52;;;;;;;12.30;8.25;;;11.70;99.90;;;;;;6271736;22;20244;-83
2023/10/11 00:28:23;;;;;;;12.23;8.00;;;11.70;99.90;;;;;;6271847;22;20694;-84
2023/10/11 00:30:51;;;;;;;15.65;8.68;;;11.60;99.90;;;;;;6271628;22;20228;-83
2023/10/11 00:33:17;;;;;;;16.15;8.40;;;11.60;99.90;;;;;;6271923;22;20289;-83
2023/10/11 00:35:47;;;;;;;13.95;8.30;;;11.60;99.90;;;;;;6271601;22;20595;-83
2023/10/11 00:38:20;;;;;;;13.82;8.15;;;11.60;99.90;;;;;;6271668;22;20173;-83
2023/10/11 00:43:46;;;;;;;11.63;7.72;;;11.60;99.90;;;;;;6247858;23;20149;-83
2023/10/11 00:46:14;;;;;;;17.73;7.82;;;11.60;99.90;;;;;;6247412;22;20137;-83
2023/10/11 00:49:08;;;;;;;11.95;7.68;;;11.70;99.90;;;;;;6271502;22;20228;-83
2023/10/11 00:51:36;;;;;;;11.68;7.55;;;11.90;99.90;;;;;;6272481;22;20181;-83
2023/10/11 00:54:04;;;;;;;15.32;8.10;;;12.00;99.90;;;;;;6271438;22;20205;-83
2023/10/11 00:56:33;;;;;;;17.27;8.32;;;12.10;99.90;;;;;;6272240;22;20160;-83
2023/10/11 00:59:00;;;;;;;11.68;7.60;;;12.20;99.90;;;;;;6271316;22;20173;-84
2023/10/11 01:24:00;;;;;;;14.85;7.85;;;12.00;99.90;;;;;;6217035;23;20689;-74
2023/10/11 01:26:27;;;;;;;11.82;7.70;;;12.00;99.90;;;;;;6177977;23;20258;-74
2023/10/11 01:28:56;;;;;;;14.27;8.00;;;11.90;99.90;;;;;;6185603;23;20206;-74
2023/10/11 01:31:22;;;;;;;12.85;7.93;;;11.90;99.90;;;;;;6185324;23;20162;-74
2023/10/11 01:33:49;;;;;;;12.18;7.38;;;11.80;99.90;;;;;;6186397;23;20198;-74
2023/10/11 01:36:15;;;;;;;13.13;7.95;;;11.80;99.90;;;;;;6185460;23;20167;-74
2023/10/11 01:38:48;;;;;;;12.90;7.70;;;11.80;99.90;;;;;;6185592;23;20158;-74
2023/10/11 01:41:26;;;;;;;14.25;7.65;;;11.90;99.90;;;;;;6186263;23;20151;-74
2023/10/11 01:43:53;;;;;;;14.32;7.78;;;11.90;99.90;;;;;;6184999;23;20540;-74
2023/10/11 01:46:35;;;;;;;14.15;8.10;;;12.00;99.90;;;;;;6185267;23;20174;-74
2023/10/11 01:49:01;;;;;;;11.75;8.15;;;12.00;99.90;;;;;;6185079;23;20230;-74
2023/10/11 01:51:28;;;;;;;11.32;7.78;;;12.00;99.90;;;;;;6185069;23;20209;-74
2023/10/11 01:54:00;;;;;;;12.48;7.60;;;12.00;99.90;;;;;;6186840;23;20181;-74
2023/10/11 01:56:26;;;;;;;13.75;7.65;;;11.90;99.90;;;;;;6185255;23;20639;-74
2023/10/11 01:58:52;;;;;;;12.95;7.82;;;11.90;99.90;;;;;;6186454;23;20147;-74
2023/10/11 02:01:22;;;;;;;14.35;7.72;;;11.90;99.90;;;;;;6184610;23;20657;-74
2023/10/11 02:03:55;;;;;;;13.63;8.13;;;12.00;99.90;;;;;;6185949;23;20229;-74
2023/10/11 02:06:21;;;;;;;13.90;8.80;;;11.90;99.90;;;;;;6220110;22;20208;-84
2023/10/11 02:08:47;;;;;;;13.60;8.38;;;11.80;99.90;;;;;;6251753;22;20572;-84
2023/10/11 02:11:15;;;;;;;15.25;8.43;;;11.80;99.90;;;;;;6250836;22;20153;-84
2023/10/11 02:13:44;;;;;;;13.30;9.00;;;11.70;99.90;;;;;;6251665;22;20227;-84
2023/10/11 02:16:14;;;;;;;14.93;8.23;;;11.60;99.90;;;;;;6250680;22;20503;-84
2023/10/11 02:18:40;;;;;;;16.45;9.13;;;11.50;99.90;;;;;;6277868;22;20165;-84
2023/10/11 02:21:06;;;;;;;15.00;9.00;;;11.50;99.90;;;;;;6250645;22;20202;-84
2023/10/11 02:23:42;;;;;;;12.80;8.07;;;11.50;99.90;;;;;;6250495;22;20181;-84
2023/10/11 02:26:14;;;;;;;14.75;8.20;;;11.40;99.90;;;;;;6250750;22;20167;-84
2023/10/11 02:28:43;;;;;;;17.17;8.27;;;11.30;99.90;;;;;;6250276;22;20196;-84
2023/10/11 02:31:13;;;;;;;15.15;8.18;;;11.30;99.90;;;;;;6250231;22;20157;-84
2023/10/11 02:33:39;;;;;;;13.15;8.27;;;11.20;99.90;;;;;;6249899;22;20157;-84
2023/10/11 02:36:09;;;;;;;14.85;8.60;;;11.20;99.90;;;;;;6249814;22;20153;-84
2023/10/11 02:38:47;;;;;;;13.00;8.32;;;11.10;99.90;;;;;;6250085;22;20173;-84
2023/10/11 02:41:13;;;;;;;14.98;8.07;;;11.10;99.90;;;;;;6249909;22;20226;-86
2023/10/11 02:43:48;;;;;;;15.30;7.97;;;11.00;99.90;;;;;;6251135;22;20153;-86
2023/10/11 02:46:22;;;;;;;15.35;8.50;;;11.00;99.90;;;;;;6250821;22;20145;-86
2023/10/11 02:49:05;;;;;;;17.15;9.40;;;11.00;99.90;;;;;;6250395;22;20251;-87
2023/10/11 02:51:33;;;;;;;18.80;9.35;;;10.90;99.90;;;;;;6276814;22;20250;-87
2023/10/11 02:54:05;;;;;;;16.08;8.98;;;10.90;99.90;;;;;;6250049;22;20235;-87
2023/10/11 02:56:46;;;;;;;14.90;8.98;;;10.90;99.90;;;;;;6250157;22;20232;-86
2023/10/11 02:59:19;;;;;;;21.45;9.27;;;10.90;99.90;;;;;;6251173;22;20230;-86
2023/10/11 03:01:59;;;;;;;16.05;8.90;;;11.00;99.90;;;;;;6250075;22;20148;-86
2023/10/11 03:04:41;;;;;;;13.68;8.35;;;11.00;99.90;;;;;;6249766;22;20232;-86
2023/10/11 03:07:23;;;;;;;17.30;8.75;;;11.10;99.90;;;;;;6250549;22;20253;-86
2023/10/11 03:09:49;;;;;;;12.82;8.38;;;11.10;99.90;;;;;;6276659;22;20181;-86
2023/10/11 03:12:38;;;;;;;15.55;8.23;;;11.10;99.90;;;;;;6249228;22;20212;-86
2023/10/11 03:15:09;;;;;;;13.40;7.88;;;11.10;99.90;;;;;;6250658;22;20149;-87
2023/10/11 03:17:41;;;;;;;16.23;8.32;;;11.10;99.90;;;;;;6249649;22;20153;-86
2023/10/11 03:20:08;;;;;;;20.40;8.93;;;11.10;99.90;;;;;;6251016;22;20149;-86
2023/10/11 03:22:35;;;;;;;13.93;8.30;;;11.00;99.90;;;;;;6250501;22;20490;-87
2023/10/11 03:25:12;;;;;;;12.18;8.48;;;11.00;99.90;;;;;;6249795;22;20172;-86
2023/10/11 03:27:45;;;;;;;14.35;8.65;;;11.00;99.90;;;;;;6249357;22;20258;-87
2023/10/11 03:30:13;;;;;;;15.10;8.38;;;11.00;99.90;;;;;;6250671;22;20153;-86
2023/10/11 03:32:41;;;;;;;13.25;8.60;;;10.90;99.90;;;;;;6250046;22;20188;-86
2023/10/11 03:35:15;;;;;;;18.60;8.30;;;10.90;99.90;;;;;;6276934;22;20218;-86
2023/10/11 03:37:57;;;;;;;14.82;9.02;;;10.90;99.90;;;;;;6249376;22;20148;-86
2023/10/11 03:40:35;;;;;;;14.63;8.38;;;10.90;99.90;;;;;;6249634;22;20228;-86
2023/10/11 03:43:03;;;;;;;12.35;8.20;;;11.00;99.90;;;;;;6249485;22;20149;-86
2023/10/11 03:45:34;;;;;;;14.10;8.55;;;11.00;99.90;;;;;;6250524;22;20161;-86
2023/10/11 03:48:00;;;;;;;13.60;8.35;;;11.00;99.90;;;;;;6250303;22;20177;-86
2023/10/11 03:50:33;;;;;;;16.50;7.78;;;11.00;99.90;;;;;;6250512;22;20161;-86
2023/10/11 03:53:07;;;;;;;14.68;8.10;;;10.90;99.90;;;;;;6250443;22;20176;-86
2023/10/11 03:55:33;;;;;;;14.30;7.95;;;10.90;99.90;;;;;;6250427;22;20149;-86
2023/10/11 03:57:58;;;;;;;12.85;7.78;;;10.90;99.90;;;;;;6250738;22;20248;-86
2023/10/11 04:00:28;;;;;;;19.17;7.75;;;10.90;99.90;;;;;;6250453;22;20177;-86
2023/10/11 04:02:57;;;;;;;12.43;8.43;;;10.80;99.90;;;;;;6249722;22;20161;-86
2023/10/11 04:05:23;;;;;;;14.13;8.30;;;10.70;99.90;;;;;;6250079;22;20206;-86
2023/10/11 04:07:49;;;;;;;14.00;8.18;;;10.60;99.90;;;;;;6249787;22;20172;-87
2023/10/11 04:10:32;;;;;;;14.63;8.73;;;10.60;99.90;;;;;;6274823;22;20210;-86
2023/10/11 04:12:57;;;;;;;15.15;7.95;;;10.60;99.90;;;;;;6249321;22;20230;-86
2023/10/11 04:15:30;;;;;;;19.35;7.85;;;10.50;99.90;;;;;;6249326;22;20157;-86
2023/10/11 04:17:56;;;;;;;11.88;7.93;;;10.50;99.90;;;;;;6250345;22;20153;-87
2023/10/11 04:20:33;;;;;;;14.32;7.70;;;10.50;99.90;;;;;;6249834;22;20161;-85
2023/10/11 04:23:14;;;;;;;15.90;7.93;;;10.50;99.90;;;;;;6250499;22;20155;-85
2023/10/11 04:25:47;;;;;;;12.07;8.05;;;10.50;99.90;;;;;;6252583;22;20164;-85
2023/10/11 04:28:12;;;;;;;13.57;7.47;;;10.50;99.90;;;;;;6252358;22;20264;-85
2023/10/11 04:30:44;;;;;;;15.05;7.88;;;10.40;99.90;;;;;;6254115;22;20157;-85
2023/10/11 04:33:24;;;;;;;15.85;8.65;;;10.40;99.90;;;;;;6253348;22;20211;-85
2023/10/11 04:35:56;;;;;;;17.17;7.93;;;10.30;99.90;;;;;;6251769;22;20170;-85
2023/10/11 04:38:22;;;;;;;17.85;7.90;;;10.30;99.90;;;;;;6252039;22;20173;-85
2023/10/11 04:40:54;;;;;;;12.82;7.78;;;10.30;99.90;;;;;;6251673;22;20160;-85
2023/10/11 04:43:29;;;;;;;15.13;7.60;;;10.20;99.90;;;;;;6253161;22;20610;-85
2023/10/11 04:45:59;;;;;;;16.17;8.02;;;10.10;99.90;;;;;;6251953;22;20156;-85
2023/10/11 04:48:30;;;;;;;14.48;8.45;;;10.10;99.90;;;;;;6252570;22;20181;-85
2023/10/11 04:51:04;;;;;;;17.58;8.15;;;10.10;99.90;;;;;;6251933;22;20149;-85
2023/10/11 04:56:52;;;;;;;15.32;7.47;;;9.90;99.90;;;;;;6279449;22;20187;-84
2023/10/11 04:59:20;;;;;;;17.85;8.98;;;9.90;99.90;;;;;;6250836;22;20183;-85
2023/10/11 05:04:14;;;;;;;15.00;8.20;;;9.80;99.90;;;;;;6289507;22;20147;-85
2023/10/11 05:06:41;;;;;;;15.85;7.82;;;9.70;99.90;;;;;;6251192;22;20215;-85
2023/10/11 05:11:50;;;;;;;12.98;7.63;;;9.60;99.90;;;;;;6288129;22;20180;-86
2023/10/11 05:19:40;;;;;;;21.13;8.52;;;9.50;99.90;;;;;;6279768;22;20222;-86
2023/10/11 05:22:08;;;;;;;18.17;8.73;;;9.60;99.90;;;;;;6251779;22;20153;-85
2023/10/11 05:27:11;;;;;;;16.77;8.35;;;9.50;99.90;;;;;;6280452;22;20157;-85
2023/10/11 05:30:06;;;;;;;15.15;8.27;;;9.50;99.90;;;;;;6251100;22;20181;-85
2023/10/11 05:32:27;;;;;;;16.48;9.30;;;9.50;99.90;;;;;;6277385;22;20177;-86
2023/10/11 05:51:27;;;;;;;15.40;8.77;;;9.30;99.90;;;;;;6277744;22;20528;-86
2023/10/11 05:53:53;;;;;;;15.60;8.10;;;9.30;99.90;;;;;;6251712;22;20146;-86
2023/10/11 05:56:22;;;;;;;15.32;8.45;;;9.20;99.90;;;;;;6250112;22;20157;-86
2023/10/11 05:58:52;;;;;;;18.20;8.35;;;9.20;99.90;;;;;;6250442;22;20525;-86
2023/10/11 06:01:21;;;;;;;15.43;8.80;;;9.20;99.90;;;;;;6250661;22;20181;-86
2023/10/11 06:03:48;;;;;;;16.50;8.18;;;9.20;99.90;;;;;;6250303;22;20160;-86
2023/10/11 06:06:23;;;;;;;12.05;8.25;;;9.40;99.90;;;;;;6250260;22;20168;-86
2023/10/11 06:08:54;;;;;;;17.67;8.05;;;9.30;99.90;;;;;;6250195;22;20208;-86
2023/10/11 06:11:23;;;;;;;14.63;8.13;;;9.40;99.90;;;;;;6276756;22;20137;-86
2023/10/11 06:13:52;;;;;;;14.20;8.70;;;9.30;99.90;;;;;;6250421;22;20148;-87
2023/10/11 06:16:19;;;;;;;14.65;8.25;;;9.40;99.90;;;;;;6249883;22;20164;-87
2023/10/11 06:21:51;;;;;;;15.60;8.18;;;9.50;99.90;;;;;;6231086;22;20195;-86
2023/10/11 06:24:22;;;;;;;14.27;8.55;;;9.50;99.90;;;;;;6250256;22;20149;-86
2023/10/11 06:29:17;;;;;;;14.88;8.82;;;9.50;99.90;;;;;;6277471;22;20173;-87
2023/10/11 06:31:46;;;;;;;15.95;9.80;;;9.50;99.90;;;;;;6277320;22;20180;-86
2023/10/11 06:34:15;;;;;;;18.00;10.18;;;9.60;99.90;;;;;;6249860;22;20160;-86
2023/10/11 06:36:51;;;;;;;17.33;8.23;;;9.70;99.90;;;;;;6250243;22;20153;-86
2023/10/11 06:42:21;;;;;;;14.13;8.07;;;9.90;99.90;;;;;;6277628;22;20160;-86
2023/10/11 06:44:59;;;;;;;14.70;8.15;;;10.00;99.90;;;;;;6249930;22;20228;-86
2023/10/11 06:47:26;;;;;;;16.15;8.55;;;10.20;99.90;;;;;;6249551;22;20168;-86
2023/10/11 06:49:56;;;;;;;19.65;9.32;;;10.40;99.90;;;;;;6249714;22;20183;-86
2023/10/11 06:52:27;;;;;;;13.88;8.70;;;10.40;99.90;;;;;;6276729;22;20176;-86
2023/10/11 06:57:39;;;;;;;13.48;8.43;;;10.50;99.90;;;;;;6286980;22;20138;-86
2023/10/11 07:00:23;;;;;;;13.27;8.63;;;10.60;99.90;;;;;;6249681;22;20206;-86
2023/10/11 07:03:09;;;;;;;16.58;8.38;;;10.60;99.90;;;;;;6250781;22;20149;-86
2023/10/11 07:05:47;;;;;;;13.45;8.27;;;10.80;99.90;;;;;;6250812;22;20206;-86
2023/10/11 07:08:34;;;;;;;15.82;8.57;;;10.90;99.90;;;;;;6250122;22;20284;-86
2023/10/11 07:13:43;;;;;;;17.60;9.63;;;11.20;99.90;;;;;;6277139;22;20226;-86
2023/10/11 07:16:10;;;;;;;20.50;9.77;;;11.30;99.90;;;;;;6249565;22;20145;-86
2023/10/11 07:18:43;;;;;;;17.42;9.48;;;11.50;99.90;;;;;;6249764;22;20180;-86
2023/10/11 07:21:09;;;;;;;13.68;8.90;;;11.60;99.90;;;;;;6249934;22;20145;-86
2023/10/11 07:23:46;;;;;;;21.10;9.20;;;11.80;99.90;;;;;;6249934;22;20634;-86
2023/10/11 07:29:03;;;;;;;15.75;9.23;;;12.00;99.90;;;;;;6281629;22;20172;-86
2023/10/11 07:31:35;;;;;;;17.08;8.93;;;12.20;99.90;;;;;;6250521;22;20171;-86
2023/10/11 07:34:17;;;;;;;17.25;9.20;;;12.30;99.90;;;;;;6249982;22;20224;-86
2023/10/11 07:36:43;;;;;;;17.33;8.93;;;12.30;99.90;;;;;;6250465;22;20141;-87
2023/10/11 07:39:19;;;;;;;19.15;9.85;;;12.40;99.90;;;;;;6250018;22;20199;-86
2023/10/11 07:41:48;;;;;;;16.83;8.90;;;12.60;99.90;;;;;;6250495;22;20171;-86
2023/10/11 07:44:16;;;;;;;18.90;9.65;;;12.70;99.90;;;;;;6249380;22;20165;-86
2023/10/11 07:46:43;;;;;;;19.05;9.50;;;12.90;99.90;;;;;;6249847;22;20167;-86
2023/10/11 07:49:14;;;;;;;15.85;8.75;;;13.00;99.90;;;;;;6250348;22;20257;-86
2023/10/11 07:51:41;;;;;;;14.48;8.95;;;13.10;99.90;;;;;;6249467;22;20235;-86
2023/10/11 07:54:07;;;;;;;17.42;9.57;;;13.20;99.90;;;;;;6249222;22;20179;-86
2023/10/11 07:56:37;;;;;;;19.70;9.70;;;13.40;99.90;;;;;;6249463;22;20161;-84
2023/10/11 07:59:08;;;;;;;18.02;9.48;;;13.40;99.90;;;;;;6277415;22;20187;-84
2023/10/11 08:01:42;;;;;;;19.17;9.73;;;13.50;99.90;;;;;;6252423;22;20157;-84
2023/10/11 08:04:12;;;;;;;16.15;9.45;;;13.60;99.90;;;;;;6252501;22;20145;-84
2023/10/11 08:06:39;;;;;;;15.05;9.60;;;13.70;99.90;;;;;;6251757;22;20266;-84
2023/10/11 08:09:09;;;;;;;17.00;8.90;;;13.80;99.90;;;;;;6252393;22;20177;-84
2023/10/11 08:11:36;;;;;;;15.75;8.75;;;14.00;99.90;;;;;;6251772;22;20149;-84
2023/10/11 08:14:13;;;;;;;18.88;9.00;;;14.10;99.90;;;;;;6251469;22;20153;-84
2023/10/11 08:16:41;;;;;;;16.80;8.45;;;14.20;99.90;;;;;;6252478;22;20199;-84
2023/10/11 08:19:06;;;;;;;23.02;8.23;;;14.30;99.90;;;;;;6251586;22;20176;-84
2023/10/11 08:21:32;;;;;;;17.10;8.90;;;14.40;99.90;;;;;;6278683;22;20153;-84
2023/10/11 08:23:58;;;;;;;14.77;7.97;;;14.50;99.90;;;;;;6251962;22;20145;-84
2023/10/11 08:26:25;;;;;;;15.05;8.80;;;14.70;99.90;;;;;;6251069;22;20153;-84
2023/10/11 08:28:51;;;;;;;16.30;8.43;;;14.80;99.90;;;;;;6251437;22;20181;-84
2023/10/11 08:31:28;;;;;;;13.60;8.25;;;14.90;99.90;;;;;;6251567;22;20153;-84
2023/10/11 08:33:54;;;;;;;15.23;8.15;;;15.00;99.90;;;;;;6251176;22;20180;-84
2023/10/11 08:36:21;;;;;;;16.02;7.30;;;15.20;99.90;;;;;;6251201;22;20495;-84
2023/10/11 08:38:46;;;;;;;12.32;7.53;;;15.20;99.90;;;;;;6251836;22;20295;-84
2023/10/11 08:41:15;;;;;;;15.02;7.82;;;15.30;99.90;;;;;;6251239;22;20581;-84
2023/10/11 08:43:43;;;;;;;13.45;7.05;;;15.50;99.90;;;;;;6251492;22;20210;-84
2023/10/11 08:46:12;;;;;;;12.63;7.40;;;15.60;99.90;;;;;;6251277;22;20158;-84
2023/10/11 08:48:38;;;;;;;12.35;7.32;;;15.70;99.90;;;;;;6252012;22;20183;-84
2023/10/11 08:51:12;;;;;;;14.85;7.75;;;15.80;99.90;;;;;;6250968;22;20189;-84
2023/10/11 08:53:50;;;;;;;13.73;7.10;;;15.90;99.90;;;;;;6251373;22;20199;-84
2023/10/11 08:56:16;;;;;;;15.02;7.43;;;16.10;99.90;;;;;;6252384;22;20148;-84
2023/10/11 08:58:44;;;;;;;13.77;6.78;;;16.20;99.90;;;;;;6251491;22;20180;-84
2023/10/11 09:01:10;;;;;;;15.10;7.28;;;16.30;99.90;;;;;;6251506;22;20243;-84
2023/10/11 09:03:41;;;;;;;16.90;7.13;;;16.40;99.90;;;;;;6251455;22;20519;-84
2023/10/11 09:06:21;;;;;;;11.07;6.72;;;16.50;99.90;;;;;;6251799;22;20164;-84
2023/10/11 09:08:47;;;;;;;17.38;7.53;;;16.70;99.90;;;;;;6251455;22;20173;-84
2023/10/11 09:11:28;;;;;;;13.48;6.63;;;16.70;99.90;;;;;;6252026;22;20157;-84
2023/10/11 09:14:08;;;;;;;12.18;7.10;;;16.90;99.90;;;;;;6251005;22;20149;-84
2023/10/11 09:16:37;;;;;;;14.90;7.20;;;17.00;99.90;;;;;;6252060;22;20145;-84
2023/10/11 09:19:09;;;;;;;17.83;7.95;;;17.20;99.90;;;;;;6251232;22;20257;-84
2023/10/11 09:21:38;;;;;;;16.35;7.32;;;17.30;99.90;;;;;;6250877;22;20161;-84
2023/10/11 09:24:23;;;;;;;19.75;7.70;;;17.50;99.90;;;;;;6251240;22;20522;-84
2023/10/11 09:29:42;;;;;;;11.27;7.20;;;17.70;99.90;;;;;;6278057;22;20254;-84
2023/10/11 09:32:09;;;;;;;14.20;8.00;;;17.80;99.90;;;;;;6251753;22;20630;-84
2023/10/11 09:34:41;;;;;;;16.02;7.43;;;17.90;99.90;;;;;;6252141;22;20153;-84
2023/10/11 09:37:13;;;;;;;15.75;6.97;;;18.10;99.90;;;;;;6251649;22;20686;-84
2023/10/11 09:39:42;;;;;;;12.57;7.22;;;18.30;99.90;;;;;;6250469;22;20173;-84
2023/10/11 09:42:12;;;;;;;15.45;6.43;;;18.40;99.90;;;;;;6250972;22;20587;-84
2023/10/11 09:44:39;;;;;;;14.77;7.43;;;18.60;99.90;;;;;;6251491;22;20184;-84
2023/10/11 09:47:06;;;;;;;12.38;6.28;;;18.70;99.90;;;;;;6251008;22;20614;-84
2023/10/11 09:49:42;;;;;;;15.25;6.57;;;18.90;99.90;;;;;;6250596;22;20183;-84
2023/10/11 09:52:18;;;;;;;13.70;6.43;;;19.00;99.90;;;;;;6251355;22;20172;-84
2023/10/11 09:54:45;;;;;;;12.98;6.75;;;19.10;99.90;;;;;;6250362;22;20152;-84
2023/10/11 09:57:20;;;;;;;16.70;6.80;;;19.10;99.90;;;;;;6250844;22;20673;-85
2023/10/11 10:00:01;;;;;;;12.15;5.53;;;19.10;99.90;;;;;;6251236;22;20172;-84
2023/10/11 10:02:52;;;;;;;11.02;5.68;;;19.20;99.90;;;;;;6251919;22;20144;-84
2023/10/11 10:05:22;;;;;;;17.15;6.35;;;19.20;99.90;;;;;;6250772;22;20233;-84
2023/10/11 10:07:51;;;;;;;10.70;6.30;;;19.20;99.90;;;;;;6250312;22;20210;-84
2023/10/11 10:10:25;;;;;;;13.35;6.10;;;19.30;99.90;;;;;;6250380;22;20243;-84
2023/10/11 10:12:58;;;;;;;16.98;5.95;;;19.30;99.90;;;;;;6250209;22;20164;-84
2023/10/11 10:15:36;;;;;;;10.63;5.93;;;19.30;99.90;;;;;;6250413;22;20153;-85
2023/10/11 10:18:12;;;;;;;16.00;5.95;;;19.30;99.90;;;;;;6250715;22;20200;-84
2023/10/11 10:20:42;;;;;;;10.07;5.60;;;19.30;99.90;;;;;;6250134;22;20137;-85
2023/10/11 10:23:16;;;;;;;14.60;5.93;;;19.30;99.90;;;;;;6250324;22;20157;-84
2023/10/11 10:25:46;;;;;;;11.13;5.80;;;19.30;99.90;;;;;;6250694;22;20141;-84
2023/10/11 10:28:31;;;;;;;12.48;6.28;;;19.30;99.90;;;;;;6251295;22;20176;-84
2023/10/11 10:31:11;;;;;;;16.67;6.53;;;19.20;99.90;;;;;;6250833;22;20229;-85
2023/10/11 10:33:41;;;;;;;16.67;6.35;;;19.20;99.90;;;;;;6250232;22;20251;-84
2023/10/11 10:36:24;;;;;;;14.75;6.38;;;19.10;99.90;;;;;;6250123;22;20167;-84
2023/10/11 10:39:03;;;;;;;14.73;6.03;;;19.20;99.90;;;;;;6250818;22;20169;-85
2023/10/11 10:41:31;;;;;;;12.73;6.00;;;19.20;99.90;;;;;;6249959;22;20206;-84
2023/10/11 10:44:11;;;;;;;13.95;5.85;;;19.20;99.90;;;;;;6250979;22;20152;-84
2023/10/11 10:46:49;;;;;;;11.05;5.57;;;19.20;99.90;;;;;;6250661;22;20227;-85
2023/10/11 10:49:19;;;;;;;12.07;6.10;;;19.30;99.90;;;;;;6251001;22;20199;-85
2023/10/11 10:51:48;;;;;;;15.07;6.30;;;19.40;99.90;;;;;;6250027;22;20180;-85
2023/10/11 10:54:17;;;;;;;13.18;5.80;;;19.50;99.90;;;;;;6249867;22;20224;-85
2023/10/11 10:56:47;;;;;;;13.75;5.63;;;19.60;99.90;;;;;;6250265;22;20176;-84
2023/10/11 10:59:20;;;;;;;8.77;5.60;;;19.70;99.90;;;;;;6250745;22;20173;-84
2023/10/11 11:01:47;;;;;;;11.80;5.50;;;19.70;99.90;;;;;;6250688;22;20191;-85
2023/10/11 11:04:22;;;;;;;14.35;5.35;;;19.70;99.90;;;;;;6249782;22;20210;-84
2023/10/11 11:06:49;;;;;;;13.30;5.13;;;19.80;99.90;;;;;;6249708;22;20176;-85
2023/10/11 11:09:25;;;;;;;14.43;6.43;;;19.90;99.90;;;;;;6249934;22;20638;-85
2023/10/11 11:11:57;;;;;;;10.85;5.80;;;19.90;99.90;;;;;;6250396;22;20191;-85
2023/10/11 11:14:24;;;;;;;14.70;5.78;;;19.90;99.90;;;;;;6250738;22;20160;-85
2023/10/11 11:17:00;;;;;;;12.30;5.35;;;19.90;99.90;;;;;;6250022;22;20476;-84
2023/10/11 11:19:27;;;;;;;17.95;7.82;;;19.90;99.90;;;;;;6249928;22;20176;-85
2023/10/11 11:22:12;;;;;;;13.07;7.65;;;20.00;99.90;;;;;;6249617;22;20161;-85
2023/10/11 11:24:42;;;;;;;15.77;7.45;;;20.00;99.90;;;;;;6250872;22;20230;-85
2023/10/11 11:27:30;;;;;;;21.02;7.00;;;20.20;99.90;;;;;;6249998;22;20649;-85
2023/10/11 11:30:04;;;;;;;15.07;7.25;;;20.20;99.90;;;;;;6251350;22;20243;-85
2023/10/11 11:32:41;;;;;;;10.63;6.65;;;20.30;99.90;;;;;;6252263;22;20495;-85
2023/10/11 11:38:01;;;;;;;16.60;7.70;;;20.50;99.90;;;;;;6282263;22;20140;-84
2023/10/11 11:40:30;;;;;;;16.92;10.40;;;20.60;99.90;;;;;;6251158;22;20678;-85
2023/10/11 11:43:00;;;;;;;16.95;11.30;;;20.80;99.90;;;;;;6249469;22;20184;-85
2023/10/11 11:45:29;;;;;;;12.20;6.88;;;20.90;99.90;;;;;;6249655;22;20161;-85
2023/10/11 11:47:58;;;;;;;19.05;11.63;;;21.00;99.90;;;;;;6249196;22;20161;-85
2023/10/11 11:50:24;;;;;;;18.63;11.88;;;21.10;99.90;;;;;;6249858;22;20184;-85
2023/10/11 11:52:50;;;;;;;20.60;10.93;;;21.10;99.90;;;;;;6249383;22;20562;-85
2023/10/11 11:55:17;;;;;;;17.85;9.90;;;21.10;99.90;;;;;;6251162;22;20146;-85
2023/10/11 11:57:43;;;;;;;15.63;8.93;;;21.10;99.60;;;;;;6252471;22;20486;-85
2023/10/11 12:03:04;;;;;;;21.88;12.18;;;21.20;99.70;;;;;;6289921;22;20198;-85
2023/10/11 12:05:37;;;;;;;18.42;9.27;;;21.20;99.80;;;;;;6278623;22;20133;-85
2023/10/11 12:08:06;;;;;;;19.45;8.63;;;21.20;99.50;;;;;;6251303;22;20196;-85
2023/10/11 12:10:32;;;;;;;13.27;6.43;;;21.20;99.00;;;;;;6251467;22;20195;-85
2023/10/11 12:13:05;;;;;;;12.57;5.53;;;21.30;98.90;;;;;;6251599;22;20184;-85
2023/10/11 12:15:32;;;;;;;10.52;5.15;;;21.30;98.50;;;;;;6251671;22;20145;-85
2023/10/11 12:17:57;;;;;;;6.65;5.00;;;21.40;98.60;;;;;;6252247;22;20177;-84
2023/10/11 12:20:33;;;;;;;13.25;5.50;;;21.40;99.00;;;;;;6251378;22;20244;-84
2023/10/11 12:23:07;;;;;;;11.02;5.55;;;21.40;98.90;;;;;;6251417;22;20144;-84
2023/10/11 12:25:38;;;;;;;10.57;5.10;;;21.40;99.60;;;;;;6278615;22;20182;-84
2023/10/11 12:28:05;;;;;;;11.85;5.00;;;21.40;99.20;;;;;;6251249;22;20188;-84
2023/10/11 12:30:35;;;;;;;13.13;4.85;;;21.50;98.10;;;;;;6251186;22;20165;-84
2023/10/11 12:33:06;;;;;;;18.65;5.03;;;21.60;98.20;;;;;;6252724;22;20279;-84
2023/10/11 12:35:40;;;;;;;10.30;5.15;;;21.60;98.20;;;;;;6251352;22;20149;-84
2023/10/11 12:38:07;;;;;;;11.18;4.80;;;21.60;98.10;;;;;;6251420;22;20568;-84
2023/10/11 12:40:34;;;;;;;16.65;5.15;;;21.60;98.30;;;;;;6251298;22;20157;-84
2023/10/11 12:43:03;;;;;;;9.63;5.35;;;21.60;97.70;;;;;;6251229;22;20149;-84
2023/10/11 12:45:31;;;;;;;11.82;4.78;;;21.60;98.60;;;;;;6252233;22;20179;-84
2023/10/11 12:47:57;;;;;;;8.90;4.90;;;21.70;98.40;;;;;;6252357;22;20181;-84
2023/10/11 12:50:22;;;;;;;10.65;5.25;;;21.70;98.00;;;;;;6251339;22;20171;-84
2023/10/11 12:52:52;;;;;;;11.27;5.28;;;21.70;97.90;;;;;;6251125;22;20180;-84
2023/10/11 12:55:20;;;;;;;11.63;5.60;;;21.70;97.50;;;;;;6251073;22;20145;-84
2023/10/11 12:57:46;;;;;;;13.18;5.25;;;21.80;97.20;;;;;;6251589;22;20210;-85
2023/10/11 13:00:28;;;;;;;13.88;5.03;;;21.90;97.80;;;;;;6251268;22;20181;-83
2023/10/11 13:03:15;;;;;;;11.60;4.45;;;21.90;97.50;;;;;;6255809;22;20152;-81
2023/10/11 13:05:45;;;;;;;16.50;5.28;;;22.00;97.30;;;;;;6282569;22;20137;-81
2023/10/11 13:08:12;;;;;;;19.13;4.90;;;22.00;97.40;;;;;;6255535;22;20223;-81
2023/10/11 13:10:43;;;;;;;10.65;4.57;;;22.00;97.30;;;;;;6255170;22;20630;-81
2023/10/11 13:13:09;;;;;;;11.50;4.72;;;21.90;97.10;;;;;;6281034;22;20212;-81
2023/10/11 13:15:38;;;;;;;10.57;4.80;;;21.90;97.00;;;;;;6255205;22;20156;-81
2023/10/11 13:18:09;;;;;;;10.20;4.50;;;21.90;96.80;;;;;;6254316;22;20177;-81
2023/10/11 13:20:38;;;;;;;10.93;4.63;;;21.90;96.50;;;;;;6282362;22;20140;-81
2023/10/11 13:23:06;;;;;;;11.73;4.75;;;21.90;96.50;;;;;;6256013;22;20191;-81
2023/10/11 13:25:33;;;;;;;13.07;5.00;;;21.90;96.30;;;;;;6255205;22;20157;-81
2023/10/11 13:28:02;;;;;;;10.20;4.55;;;21.90;96.50;;;;;;6283124;22;20172;-81
2023/10/11 13:30:29;;;;;;;7.70;4.38;;;21.90;95.40;;;;;;6255480;22;20187;-81
2023/10/11 13:32:57;;;;;;;16.17;5.00;;;21.80;95.50;;;;;;6254936;22;20180;-81
2023/10/11 13:35:23;;;;;;;12.13;4.72;;;21.80;95.60;;;;;;6254218;22;20153;-81
2023/10/11 13:37:51;;;;;;;13.07;4.50;;;21.70;95.90;;;;;;6253898;22;20173;-81
2023/10/11 13:40:18;;;;;;;9.77;4.97;;;21.60;96.10;;;;;;6253255;22;20504;-81
2023/10/11 13:42:44;;;;;;;9.88;4.60;;;21.60;95.70;;;;;;6283241;22;20204;-81
2023/10/11 13:45:16;;;;;;;10.55;4.60;;;21.50;95.50;;;;;;6252844;22;20184;-81
2023/10/11 13:47:43;;;;;;;15.70;4.97;;;21.50;95.70;;;;;;6253160;22;20157;-81
2023/10/11 13:50:20;;;;;;;9.15;4.07;;;21.40;96.30;;;;;;6256570;22;20233;-81
2023/10/11 13:52:51;;;;;;;9.15;4.65;;;21.40;96.70;;;;;;6254566;22;20249;-81
2023/10/11 13:55:18;;;;;;;10.65;4.65;;;21.40;96.20;;;;;;6254587;22;20163;-81
2023/10/11 13:57:52;;;;;;;10.60;4.38;;;21.40;96.20;;;;;;6254066;22;20154;-81
2023/10/11 14:01:01;;;;;;;11.18;4.22;;;21.30;95.80;;;;;;6256088;22;20153;-81
2023/10/11 14:05:46;;;;;;;13.38;4.50;;;21.10;97.10;;;;;;6282190;22;20165;-81
2023/10/11 14:08:24;;;;;;;11.25;4.63;;;21.00;97.30;;;;;;6280760;22;20181;-81
2023/10/11 14:10:54;;;;;;;11.30;4.63;;;21.00;97.50;;;;;;6281174;22;20137;-81
2023/10/11 14:13:25;;;;;;;18.75;4.82;;;21.00;97.20;;;;;;6253182;22;20215;-81
2023/10/11 14:15:52;;;;;;;12.45;4.25;;;21.00;97.10;;;;;;6280814;22;20137;-81
2023/10/11 14:18:19;;;;;;;8.57;4.20;;;21.00;96.50;;;;;;6255086;22;20172;-81
2023/10/11 14:20:49;;;;;;;8.15;4.03;;;21.00;96.70;;;;;;6253767;22;20179;-81
2023/10/11 14:23:15;;;;;;;9.93;4.35;;;21.00;95.70;;;;;;6281853;22;20210;-81